Twin Bridges, CA (95721)

8:35 AM PDT on September 29, 2016 (GMT -0700)
Tahoe Keys | | Change Station
Active Advisory: Fire Weather Watch

Elev 6296 ft 38.92 °N, 120.01 °W | Updated 15 minutes ago

Clear
Clear
46.4 °F
Feels Like 46 °F
N
0.0
Wind Variable Wind from East

Today
High -- | Low -- °F
--% Chance of Precip.
Yesterday
High -- | Low -- °F
Precip. -- in
Pressure 30.16 in
Visibility 10.0 miles
Clouds Clear
Windchill 46 °F
Dew Point 34 °F
Humidity 63%
Rainfall 0.00 in
Snow Depth Not available.
6:54 AM 6:44 PM
Waning Crescent, 2% visible
METAR KTVL 291453Z AUTO 18003KT 10SM CLR 07/M01 A3026 RMK AO2 SLP213 T00671006 53008
Pressure 30.16 in
Visibility 10.0 miles
Clouds Clear
Windchill 46 °F
Dew Point 34 °F
Humidity 63%
Rainfall 0.00 in
Snow Depth Not available.
6:54 AM 6:44 PM
Waning Crescent, 2% visible
METAR KTVL 291453Z AUTO 18003KT 10SM CLR 07/M01 A3026 RMK AO2 SLP213 T00671006 53008

10-Day Weather Forecast

Almanac

Astronomy

Sep. 29, 2016 Rise Set
Actual Time
Civil Twilight
Nautical Twilight
Astronomical Twilight
Moon
Length of Visible Light
Length of Day
Tomorrow will be .
, % of the Moon is Illuminated

Today's Extremes

State Highs State Lows

Community

WunderPhotos

Upload Photos

1,942,499 photos uploaded!

WunderBlog® & News

Nearby

Air Quality

  Air Quality AQ Index Pollutant
Not available.

Snow Depth

Station Depth Elevation

Earthquake Activity

City Distance Mag. Time & Date
Minimum magnitude displayed is 2.5.

Coastal Water Temperatures

Place Temperature

Stations

Nearby Weather Stations

Station Location Temp. Windchill Dew Point Humidity Wind Precip. Elev Updated Type
                   

Watches & Warnings

Fire Weather Watch
Issued: 10:57 AM PDT Sep. 28, 2016 – National Weather Service

... Fire Weather Watch in effect from Friday morning through
Friday evening for gusty winds and low humidity for the Lake Tahoe
basin and portions of northwest Nevada...

The National Weather Service in Reno has issued a Fire Weather
Watch for gusty winds and low humidity, which is in effect from
Friday morning through Friday evening.

* Affected area... fire zone 272 greater Lake Tahoe area, fire
zone 450 western Nevada Sierra front, fire zone 453 west
central Nevada basin and range and fire zone 458 northern
Washoe County.

* Winds... southwest winds 15 to 20 mph with gusts up to 40 mph.

* Humidity... 15 to 20 percent in western Nevada and 20 to 25
percent in the Sierra.

* Impacts... the combination of gusty winds and low humidity can
cause fire to rapidly grow in size and intensity before first
responders can contain them.

Precautionary/preparedness actions...

Avoid outdoor activities that can cause a spark near dry
vegetation, such as yard work, target shooting, or campfires.
Follow local fire restrictions. Check weather.Gov/Reno for
updates and livingwithfire.Info for preparedness tips.



Http://weather.Gov/Reno